Deal, New Jersey
Current Conditions -  °F | °C
As of 12:35 AM on Friday 28 Nov 2014 (Local Time) from KBLM Reporting Station
Clear Clear  
Wind Chill: -6°   Ceiling: Unl
Heat Index: -1°   Visibility: 10mi
Dew Point: -8°   Wind: 9mph
Humidity: 60%   Direction: 290°WNW
Pressure: 30.07"   Gusts: NA
Location:  40.24°N, 74°W
Report Text: KBLM 280535Z AUTO 29008KT 10SM CLR M01/M08 A3007 RMK AO1
Loading
Personal Weather Stations






























Interactive Weather Map New forecast layout! Learn more

10-Day Weather Forecast

Advertisements
Track Severe Weather on mobile